sensor_id;sensor_type;location;lat;lon;timestamp;temperature;humidity
70682;SHT31;58261;48.228;11.686;2022-07-04T00:02:55;23.7;59
70682;SHT31;58261;48.228;11.686;2022-07-04T00:06:15;23.5;59
70682;SHT31;58261;48.228;11.686;2022-07-04T00:09:35;23.5;59
70682;SHT31;58261;48.228;11.686;2022-07-04T00:12:55;23.5;59
70682;SHT31;58261;48.228;11.686;2022-07-04T00:16:15;23.2;58
70682;SHT31;58261;48.228;11.686;2022-07-04T00:19:35;23.2;58
70682;SHT31;58261;48.228;11.686;2022-07-04T00:22:55;23.2;58
70682;SHT31;58261;48.228;11.686;2022-07-04T00:26:15;23.1;57
70682;SHT31;58261;48.228;11.686;2022-07-04T00:29:35;23.1;57
70682;SHT31;58261;48.228;11.686;2022-07-04T00:32:55;23.1;57
70682;SHT31;58261;48.228;11.686;2022-07-04T00:36:15;23.1;57
70682;SHT31;58261;48.228;11.686;2022-07-04T00:39:35;23.0;58
70682;SHT31;58261;48.228;11.686;2022-07-04T00:42:59;23.0;58
70682;SHT31;58261;48.228;11.686;2022-07-04T00:46:15;23.0;58
70682;SHT31;58261;48.228;11.686;2022-07-04T00:49:35;22.6;60
70682;SHT31;58261;48.228;11.686;2022-07-04T00:52:55;22.6;60
70682;SHT31;58261;48.228;11.686;2022-07-04T00:56:15;22.6;60
70682;SHT31;58261;48.228;11.686;2022-07-04T00:59:35;22.5;61
70682;SHT31;58261;48.228;11.686;2022-07-04T01:02:55;22.5;61
70682;SHT31;58261;48.228;11.686;2022-07-04T01:06:15;22.5;61
70682;SHT31;58261;48.228;11.686;2022-07-04T01:09:35;22.5;61
70682;SHT31;58261;48.228;11.686;2022-07-04T01:12:55;22.5;61
70682;SHT31;58261;48.228;11.686;2022-07-04T01:16:15;22.5;61
70682;SHT31;58261;48.228;11.686;2022-07-04T01:19:35;22.5;61
70682;SHT31;58261;48.228;11.686;2022-07-04T01:22:55;22.6;62
70682;SHT31;58261;48.228;11.686;2022-07-04T01:26:15;22.6;62
70682;SHT31;58261;48.228;11.686;2022-07-04T01:29:35;22.6;62
70682;SHT31;58261;48.228;11.686;2022-07-04T01:32:55;22.6;61
70682;SHT31;58261;48.228;11.686;2022-07-04T01:36:15;22.6;61
70682;SHT31;58261;48.228;11.686;2022-07-04T01:39:35;22.6;61
70682;SHT31;58261;48.228;11.686;2022-07-04T01:42:55;22.6;61
70682;SHT31;58261;48.228;11.686;2022-07-04T01:46:15;22.6;61
70682;SHT31;58261;48.228;11.686;2022-07-04T01:49:35;22.6;61
70682;SHT31;58261;48.228;11.686;2022-07-04T01:52:55;22.6;61
70682;SHT31;58261;48.228;11.686;2022-07-04T01:56:15;22.6;62
70682;SHT31;58261;48.228;11.686;2022-07-04T01:59:35;22.6;62
70682;SHT31;58261;48.228;11.686;2022-07-04T02:02:56;22.6;62
70682;SHT31;58261;48.228;11.686;2022-07-04T02:06:15;22.7;62
70682;SHT31;58261;48.228;11.686;2022-07-04T02:09:35;22.7;62
70682;SHT31;58261;48.228;11.686;2022-07-04T02:12:55;22.7;62
70682;SHT31;58261;48.228;11.686;2022-07-04T02:16:15;22.3;64
70682;SHT31;58261;48.228;11.686;2022-07-04T02:19:35;22.3;64
70682;SHT31;58261;48.228;11.686;2022-07-04T02:22:55;22.3;64
70682;SHT31;58261;48.228;11.686;2022-07-04T02:26:15;22.2;64
70682;SHT31;58261;48.228;11.686;2022-07-04T02:29:35;22.2;64
70682;SHT31;58261;48.228;11.686;2022-07-04T02:32:55;22.2;64
70682;SHT31;58261;48.228;11.686;2022-07-04T02:36:15;22.2;64
70682;SHT31;58261;48.228;11.686;2022-07-04T02:39:35;22.4;65
70682;SHT31;58261;48.228;11.686;2022-07-04T02:42:55;22.4;65
70682;SHT31;58261;48.228;11.686;2022-07-04T02:46:15;22.4;65
70682;SHT31;58261;48.228;11.686;2022-07-04T02:49:35;22.2;66
70682;SHT31;58261;48.228;11.686;2022-07-04T02:52:55;22.2;66
70682;SHT31;58261;48.228;11.686;2022-07-04T02:56:15;22.2;66
70682;SHT31;58261;48.228;11.686;2022-07-04T02:59:35;22.2;66
70682;SHT31;58261;48.228;11.686;2022-07-04T03:02:55;22.2;66
70682;SHT31;58261;48.228;11.686;2022-07-04T03:06:16;22.2;66
70682;SHT31;58261;48.228;11.686;2022-07-04T03:09:35;22.2;66
70682;SHT31;58261;48.228;11.686;2022-07-04T03:12:55;22.2;66
70682;SHT31;58261;48.228;11.686;2022-07-04T03:16:16;22.2;66
70682;SHT31;58261;48.228;11.686;2022-07-04T03:19:35;22.2;66
70682;SHT31;58261;48.228;11.686;2022-07-04T03:22:55;22.0;66
70682;SHT31;58261;48.228;11.686;2022-07-04T03:26:15;22.0;66
70682;SHT31;58261;48.228;11.686;2022-07-04T03:29:35;22.0;66
70682;SHT31;58261;48.228;11.686;2022-07-04T03:32:55;21.9;67
70682;SHT31;58261;48.228;11.686;2022-07-04T03:36:15;21.9;67
70682;SHT31;58261;48.228;11.686;2022-07-04T03:39:35;21.9;67
70682;SHT31;58261;48.228;11.686;2022-07-04T03:42:56;21.9;67
70682;SHT31;58261;48.228;11.686;2022-07-04T03:46:15;21.9;67
70682;SHT31;58261;48.228;11.686;2022-07-04T03:49:35;21.9;67
70682;SHT31;58261;48.228;11.686;2022-07-04T03:52:55;21.9;67
70682;SHT31;58261;48.228;11.686;2022-07-04T03:56:16;21.5;69
70682;SHT31;58261;48.228;11.686;2022-07-04T03:59:35;21.5;69
70682;SHT31;58261;48.228;11.686;2022-07-04T04:02:55;21.5;69
70682;SHT31;58261;48.228;11.686;2022-07-04T04:06:15;21.5;69
70682;SHT31;58261;48.228;11.686;2022-07-04T04:09:35;21.5;69
70682;SHT31;58261;48.228;11.686;2022-07-04T04:12:56;21.5;69
70682;SHT31;58261;48.228;11.686;2022-07-04T04:16:15;21.5;69
70682;SHT31;58261;48.228;11.686;2022-07-04T04:19:36;21.5;69
70682;SHT31;58261;48.228;11.686;2022-07-04T04:22:55;21.5;69
70682;SHT31;58261;48.228;11.686;2022-07-04T04:26:16;21.7;68
70682;SHT31;58261;48.228;11.686;2022-07-04T04:29:35;21.7;68
70682;SHT31;58261;48.228;11.686;2022-07-04T04:32:55;21.7;68
70682;SHT31;58261;48.228;11.686;2022-07-04T04:36:16;21.7;68
70682;SHT31;58261;48.228;11.686;2022-07-04T04:39:36;21.8;70
70682;SHT31;58261;48.228;11.686;2022-07-04T04:42:56;21.8;70
70682;SHT31;58261;48.228;11.686;2022-07-04T04:46:16;21.8;70
70682;SHT31;58261;48.228;11.686;2022-07-04T04:49:36;21.8;71
70682;SHT31;58261;48.228;11.686;2022-07-04T04:52:56;21.8;71
70682;SHT31;58261;48.228;11.686;2022-07-04T04:56:16;21.8;71
70682;SHT31;58261;48.228;11.686;2022-07-04T04:59:36;21.6;70
70682;SHT31;58261;48.228;11.686;2022-07-04T05:02:56;21.6;70
70682;SHT31;58261;48.228;11.686;2022-07-04T05:06:16;21.6;70
70682;SHT31;58261;48.228;11.686;2022-07-04T05:09:36;21.9;72
70682;SHT31;58261;48.228;11.686;2022-07-04T05:12:56;21.9;72
70682;SHT31;58261;48.228;11.686;2022-07-04T05:16:16;21.9;72
70682;SHT31;58261;48.228;11.686;2022-07-04T05:19:36;21.9;72
70682;SHT31;58261;48.228;11.686;2022-07-04T05:22:56;22.0;73
70682;SHT31;58261;48.228;11.686;2022-07-04T05:26:16;22.0;73
70682;SHT31;58261;48.228;11.686;2022-07-04T05:29:36;22.0;73
70682;SHT31;58261;48.228;11.686;2022-07-04T05:32:56;22.1;72
70682;SHT31;58261;48.228;11.686;2022-07-04T05:36:16;22.1;72
70682;SHT31;58261;48.228;11.686;2022-07-04T05:39:36;22.1;72
70682;SHT31;58261;48.228;11.686;2022-07-04T05:42:56;21.9;69
70682;SHT31;58261;48.228;11.686;2022-07-04T05:46:16;21.9;69
70682;SHT31;58261;48.228;11.686;2022-07-04T05:49:36;21.9;69
70682;SHT31;58261;48.228;11.686;2022-07-04T05:52:56;22.1;71
70682;SHT31;58261;48.228;11.686;2022-07-04T05:56:16;22.1;71
70682;SHT31;58261;48.228;11.686;2022-07-04T05:59:36;22.1;71
70682;SHT31;58261;48.228;11.686;2022-07-04T06:02:56;22.1;71
70682;SHT31;58261;48.228;11.686;2022-07-04T06:06:16;22.1;71
70682;SHT31;58261;48.228;11.686;2022-07-04T06:09:36;22.1;71
70682;SHT31;58261;48.228;11.686;2022-07-04T06:12:56;22.1;71
70682;SHT31;58261;48.228;11.686;2022-07-04T06:16:16;22.0;70
70682;SHT31;58261;48.228;11.686;2022-07-04T06:19:36;22.0;70
70682;SHT31;58261;48.228;11.686;2022-07-04T06:22:56;22.0;70
70682;SHT31;58261;48.228;11.686;2022-07-04T06:26:16;21.9;69
70682;SHT31;58261;48.228;11.686;2022-07-04T06:29:36;21.9;69
70682;SHT31;58261;48.228;11.686;2022-07-04T06:32:56;21.9;69
70682;SHT31;58261;48.228;11.686;2022-07-04T06:36:16;21.9;69
70682;SHT31;58261;48.228;11.686;2022-07-04T06:39:36;21.8;69
70682;SHT31;58261;48.228;11.686;2022-07-04T06:42:56;21.8;69
70682;SHT31;58261;48.228;11.686;2022-07-04T06:46:16;21.8;69
70682;SHT31;58261;48.228;11.686;2022-07-04T06:49:36;21.7;68
70682;SHT31;58261;48.228;11.686;2022-07-04T06:52:56;21.7;68
70682;SHT31;58261;48.228;11.686;2022-07-04T06:56:16;21.7;68
70682;SHT31;58261;48.228;11.686;2022-07-04T06:59:36;21.5;68
70682;SHT31;58261;48.228;11.686;2022-07-04T07:02:56;21.5;68
70682;SHT31;58261;48.228;11.686;2022-07-04T07:06:16;21.5;68
70682;SHT31;58261;48.228;11.686;2022-07-04T07:09:36;21.5;69
70682;SHT31;58261;48.228;11.686;2022-07-04T07:12:56;21.5;69
70682;SHT31;58261;48.228;11.686;2022-07-04T07:16:16;21.5;69
70682;SHT31;58261;48.228;11.686;2022-07-04T07:19:36;21.5;69
70682;SHT31;58261;48.228;11.686;2022-07-04T07:22:56;21.4;69
70682;SHT31;58261;48.228;11.686;2022-07-04T07:26:16;21.4;69
70682;SHT31;58261;48.228;11.686;2022-07-04T07:29:36;21.4;69
70682;SHT31;58261;48.228;11.686;2022-07-04T07:32:56;21.4;69
70682;SHT31;58261;48.228;11.686;2022-07-04T07:36:16;21.4;69
70682;SHT31;58261;48.228;11.686;2022-07-04T07:39:36;21.4;69
70682;SHT31;58261;48.228;11.686;2022-07-04T07:42:56;21.3;69
70682;SHT31;58261;48.228;11.686;2022-07-04T07:46:16;21.3;69
70682;SHT31;58261;48.228;11.686;2022-07-04T07:49:36;21.3;69
70682;SHT31;58261;48.228;11.686;2022-07-04T07:52:56;21.2;71
70682;SHT31;58261;48.228;11.686;2022-07-04T07:56:16;21.2;71
70682;SHT31;58261;48.228;11.686;2022-07-04T07:59:36;21.2;71
70682;SHT31;58261;48.228;11.686;2022-07-04T08:02:56;21.2;71
70682;SHT31;58261;48.228;11.686;2022-07-04T08:06:16;21.4;71
70682;SHT31;58261;48.228;11.686;2022-07-04T08:09:36;21.4;71
70682;SHT31;58261;48.228;11.686;2022-07-04T08:12:56;21.4;71
70682;SHT31;58261;48.228;11.686;2022-07-04T08:16:16;21.6;70
70682;SHT31;58261;48.228;11.686;2022-07-04T08:19:36;21.6;70
70682;SHT31;58261;48.228;11.686;2022-07-04T08:22:56;21.6;70
70682;SHT31;58261;48.228;11.686;2022-07-04T08:26:16;21.7;68
70682;SHT31;58261;48.228;11.686;2022-07-04T08:29:36;21.7;68
70682;SHT31;58261;48.228;11.686;2022-07-04T08:32:56;21.7;68
70682;SHT31;58261;48.228;11.686;2022-07-04T08:36:16;21.7;68
70682;SHT31;58261;48.228;11.686;2022-07-04T08:39:36;21.7;68
70682;SHT31;58261;48.228;11.686;2022-07-04T08:42:56;21.7;68
70682;SHT31;58261;48.228;11.686;2022-07-04T08:46:16;21.7;68
70682;SHT31;58261;48.228;11.686;2022-07-04T08:49:36;21.9;68
70682;SHT31;58261;48.228;11.686;2022-07-04T08:52:58;21.9;68
70682;SHT31;58261;48.228;11.686;2022-07-04T08:56:16;21.9;68
70682;SHT31;58261;48.228;11.686;2022-07-04T08:59:36;22.3;67
70682;SHT31;58261;48.228;11.686;2022-07-04T09:02:56;22.3;67
70682;SHT31;58261;48.228;11.686;2022-07-04T09:06:16;22.3;67
70682;SHT31;58261;48.228;11.686;2022-07-04T09:09:36;22.5;64
70682;SHT31;58261;48.228;11.686;2022-07-04T09:12:56;22.5;64
70682;SHT31;58261;48.228;11.686;2022-07-04T09:16:16;22.5;64
70682;SHT31;58261;48.228;11.686;2022-07-04T09:19:36;22.5;64
70682;SHT31;58261;48.228;11.686;2022-07-04T09:22:56;23.0;60
70682;SHT31;58261;48.228;11.686;2022-07-04T09:26:16;23.0;60
70682;SHT31;58261;48.228;11.686;2022-07-04T09:29:37;23.0;60
70682;SHT31;58261;48.228;11.686;2022-07-04T09:32:56;23.3;58
70682;SHT31;58261;48.228;11.686;2022-07-04T09:36:17;23.3;58
70682;SHT31;58261;48.228;11.686;2022-07-04T09:39:36;23.3;58
70682;SHT31;58261;48.228;11.686;2022-07-04T09:42:57;23.6;57
70682;SHT31;58261;48.228;11.686;2022-07-04T09:46:16;23.6;57
70682;SHT31;58261;48.228;11.686;2022-07-04T09:49:36;23.6;57
70682;SHT31;58261;48.228;11.686;2022-07-04T09:52:57;23.7;57
70682;SHT31;58261;48.228;11.686;2022-07-04T09:56:16;23.7;57
70682;SHT31;58261;48.228;11.686;2022-07-04T09:59:36;23.7;57
70682;SHT31;58261;48.228;11.686;2022-07-04T10:02:57;23.7;57
70682;SHT31;58261;48.228;11.686;2022-07-04T10:06:16;23.9;56
70682;SHT31;58261;48.228;11.686;2022-07-04T10:09:36;23.9;56
70682;SHT31;58261;48.228;11.686;2022-07-04T10:12:57;23.9;56
70682;SHT31;58261;48.228;11.686;2022-07-04T10:16:16;24.1;57
70682;SHT31;58261;48.228;11.686;2022-07-04T10:19:36;24.1;57
70682;SHT31;58261;48.228;11.686;2022-07-04T10:22:56;24.1;57
70682;SHT31;58261;48.228;11.686;2022-07-04T10:26:17;24.3;56
70682;SHT31;58261;48.228;11.686;2022-07-04T10:29:36;24.3;56
70682;SHT31;58261;48.228;11.686;2022-07-04T10:32:57;24.3;56
70682;SHT31;58261;48.228;11.686;2022-07-04T10:36:17;24.3;55
70682;SHT31;58261;48.228;11.686;2022-07-04T10:39:36;24.3;55
70682;SHT31;58261;48.228;11.686;2022-07-04T10:42:56;24.3;55
70682;SHT31;58261;48.228;11.686;2022-07-04T10:49:36;24.4;56
70682;SHT31;58261;48.228;11.686;2022-07-04T10:59:36;24.4;56
70682;SHT31;58261;48.228;11.686;2022-07-04T11:09:36;24.5;57
70682;SHT31;58261;48.228;11.686;2022-07-04T11:16:16;24.5;57
70682;SHT31;58261;48.228;11.686;2022-07-04T11:19:36;24.6;55
70682;SHT31;58261;48.228;11.686;2022-07-04T11:26:16;24.6;55
70682;SHT31;58261;48.228;11.686;2022-07-04T11:29:36;24.6;55
70682;SHT31;58261;48.228;11.686;2022-07-04T11:32:56;24.6;56
70682;SHT31;58261;48.228;11.686;2022-07-04T11:36:17;24.6;56
70682;SHT31;58261;48.228;11.686;2022-07-04T11:39:36;24.6;56
70682;SHT31;58261;48.228;11.686;2022-07-04T11:43:02;24.6;54
70682;SHT31;58261;48.228;11.686;2022-07-04T11:46:16;24.6;54
70682;SHT31;58261;48.228;11.686;2022-07-04T11:49:40;24.6;54
70682;SHT31;58261;48.228;11.686;2022-07-04T11:52:56;24.6;54
70682;SHT31;58261;48.228;11.686;2022-07-04T11:56:16;24.6;54
70682;SHT31;58261;48.228;11.686;2022-07-04T11:59:36;24.6;54
70682;SHT31;58261;48.228;11.686;2022-07-04T12:02:58;24.6;54
70682;SHT31;58261;48.228;11.686;2022-07-04T12:06:16;24.8;54
70682;SHT31;58261;48.228;11.686;2022-07-04T12:09:36;24.8;54
70682;SHT31;58261;48.228;11.686;2022-07-04T12:12:57;24.8;54
70682;SHT31;58261;48.228;11.686;2022-07-04T12:16:16;24.9;55
70682;SHT31;58261;48.228;11.686;2022-07-04T12:19:36;24.9;55
70682;SHT31;58261;48.228;11.686;2022-07-04T12:22:57;24.9;55
70682;SHT31;58261;48.228;11.686;2022-07-04T12:26:16;25.0;56
70682;SHT31;58261;48.228;11.686;2022-07-04T12:29:36;25.0;56
70682;SHT31;58261;48.228;11.686;2022-07-04T12:32:57;25.0;56
70682;SHT31;58261;48.228;11.686;2022-07-04T12:36:16;25.1;55
70682;SHT31;58261;48.228;11.686;2022-07-04T12:39:37;25.1;55
70682;SHT31;58261;48.228;11.686;2022-07-04T12:42:56;25.1;55
70682;SHT31;58261;48.228;11.686;2022-07-04T12:49:36;25.1;55
70682;SHT31;58261;48.228;11.686;2022-07-04T12:52:56;25.1;55
70682;SHT31;58261;48.228;11.686;2022-07-04T12:59:36;25.2;52
70682;SHT31;58261;48.228;11.686;2022-07-04T13:02:56;25.2;52
70682;SHT31;58261;48.228;11.686;2022-07-04T13:06:16;25.2;52
70682;SHT31;58261;48.228;11.686;2022-07-04T13:09:36;25.1;53
70682;SHT31;58261;48.228;11.686;2022-07-04T13:12:56;25.1;53
70682;SHT31;58261;48.228;11.686;2022-07-04T13:16:16;25.1;53
70682;SHT31;58261;48.228;11.686;2022-07-04T13:19:36;25.3;54
70682;SHT31;58261;48.228;11.686;2022-07-04T13:22:56;25.3;54
70682;SHT31;58261;48.228;11.686;2022-07-04T13:26:16;25.3;54
70682;SHT31;58261;48.228;11.686;2022-07-04T13:29:36;25.3;54
70682;SHT31;58261;48.228;11.686;2022-07-04T13:32:56;25.3;54
70682;SHT31;58261;48.228;11.686;2022-07-04T13:36:16;25.3;54
70682;SHT31;58261;48.228;11.686;2022-07-04T13:39:36;25.3;54
70682;SHT31;58261;48.228;11.686;2022-07-04T13:42:56;25.5;56
70682;SHT31;58261;48.228;11.686;2022-07-04T13:46:16;25.5;56
70682;SHT31;58261;48.228;11.686;2022-07-04T13:49:36;25.5;56
70682;SHT31;58261;48.228;11.686;2022-07-04T13:52:56;25.8;55
70682;SHT31;58261;48.228;11.686;2022-07-04T13:56:16;25.8;55
70682;SHT31;58261;48.228;11.686;2022-07-04T13:59:36;25.8;55
70682;SHT31;58261;48.228;11.686;2022-07-04T14:02:56;25.8;55
70682;SHT31;58261;48.228;11.686;2022-07-04T14:06:17;26.0;50
70682;SHT31;58261;48.228;11.686;2022-07-04T14:09:36;26.0;50
70682;SHT31;58261;48.228;11.686;2022-07-04T14:12:56;26.0;50
70682;SHT31;58261;48.228;11.686;2022-07-04T14:16:16;26.1;52
70682;SHT31;58261;48.228;11.686;2022-07-04T14:19:36;26.1;52
70682;SHT31;58261;48.228;11.686;2022-07-04T14:22:56;26.1;52
70682;SHT31;58261;48.228;11.686;2022-07-04T14:26:16;26.2;50
70682;SHT31;58261;48.228;11.686;2022-07-04T14:29:36;26.2;50
70682;SHT31;58261;48.228;11.686;2022-07-04T14:32:56;26.2;50
70682;SHT31;58261;48.228;11.686;2022-07-04T14:36:16;26.3;51
70682;SHT31;58261;48.228;11.686;2022-07-04T14:39:36;26.3;51
70682;SHT31;58261;48.228;11.686;2022-07-04T14:42:56;26.3;51
70682;SHT31;58261;48.228;11.686;2022-07-04T14:46:16;26.3;51
70682;SHT31;58261;48.228;11.686;2022-07-04T14:49:36;26.2;50
70682;SHT31;58261;48.228;11.686;2022-07-04T14:52:56;26.2;50
70682;SHT31;58261;48.228;11.686;2022-07-04T14:56:16;26.2;50
70682;SHT31;58261;48.228;11.686;2022-07-04T14:59:36;26.1;51
70682;SHT31;58261;48.228;11.686;2022-07-04T15:02:56;26.1;51
70682;SHT31;58261;48.228;11.686;2022-07-04T15:06:16;26.1;51
70682;SHT31;58261;48.228;11.686;2022-07-04T15:09:36;26.0;52
70682;SHT31;58261;48.228;11.686;2022-07-04T15:12:56;26.0;52
70682;SHT31;58261;48.228;11.686;2022-07-04T15:16:16;26.0;52
70682;SHT31;58261;48.228;11.686;2022-07-04T15:19:36;26.1;51
70682;SHT31;58261;48.228;11.686;2022-07-04T15:22:56;26.1;51
70682;SHT31;58261;48.228;11.686;2022-07-04T15:26:16;26.1;51
70682;SHT31;58261;48.228;11.686;2022-07-04T15:29:36;26.1;51
70682;SHT31;58261;48.228;11.686;2022-07-04T15:32:56;26.1;51
70682;SHT31;58261;48.228;11.686;2022-07-04T15:36:16;26.1;51
70682;SHT31;58261;48.228;11.686;2022-07-04T15:39:37;26.1;51
70682;SHT31;58261;48.228;11.686;2022-07-04T15:42:56;26.2;51
70682;SHT31;58261;48.228;11.686;2022-07-04T15:46:17;26.2;51
70682;SHT31;58261;48.228;11.686;2022-07-04T15:49:37;26.2;51
70682;SHT31;58261;48.228;11.686;2022-07-04T15:52:57;26.8;52
70682;SHT31;58261;48.228;11.686;2022-07-04T15:56:17;26.8;52
70682;SHT31;58261;48.228;11.686;2022-07-04T15:59:37;26.8;52
70682;SHT31;58261;48.228;11.686;2022-07-04T16:02:57;26.8;52
70682;SHT31;58261;48.228;11.686;2022-07-04T16:06:17;26.9;51
70682;SHT31;58261;48.228;11.686;2022-07-04T16:09:37;26.9;51
70682;SHT31;58261;48.228;11.686;2022-07-04T16:12:57;26.9;51
70682;SHT31;58261;48.228;11.686;2022-07-04T16:16:17;26.7;48
70682;SHT31;58261;48.228;11.686;2022-07-04T16:19:37;26.7;48
70682;SHT31;58261;48.228;11.686;2022-07-04T16:22:57;26.7;48
70682;SHT31;58261;48.228;11.686;2022-07-04T16:26:17;26.4;49
70682;SHT31;58261;48.228;11.686;2022-07-04T16:29:37;26.4;49
70682;SHT31;58261;48.228;11.686;2022-07-04T16:32:57;26.4;49
70682;SHT31;58261;48.228;11.686;2022-07-04T16:36:17;26.2;49
70682;SHT31;58261;48.228;11.686;2022-07-04T16:39:37;26.2;49
70682;SHT31;58261;48.228;11.686;2022-07-04T16:42:57;26.2;49
70682;SHT31;58261;48.228;11.686;2022-07-04T16:46:17;26.2;49
70682;SHT31;58261;48.228;11.686;2022-07-04T16:49:37;26.0;49
70682;SHT31;58261;48.228;11.686;2022-07-04T16:52:57;26.0;49
70682;SHT31;58261;48.228;11.686;2022-07-04T16:56:17;26.0;49
70682;SHT31;58261;48.228;11.686;2022-07-04T16:59:37;25.9;50
70682;SHT31;58261;48.228;11.686;2022-07-04T17:02:57;25.9;50
70682;SHT31;58261;48.228;11.686;2022-07-04T17:06:17;25.9;50
70682;SHT31;58261;48.228;11.686;2022-07-04T17:09:37;25.8;50
70682;SHT31;58261;48.228;11.686;2022-07-04T17:12:57;25.8;50
70682;SHT31;58261;48.228;11.686;2022-07-04T17:16:17;25.8;50
70682;SHT31;58261;48.228;11.686;2022-07-04T17:19:37;25.6;51
70682;SHT31;58261;48.228;11.686;2022-07-04T17:22:57;25.6;51
70682;SHT31;58261;48.228;11.686;2022-07-04T17:26:17;25.6;51
70682;SHT31;58261;48.228;11.686;2022-07-04T17:29:37;25.6;51
70682;SHT31;58261;48.228;11.686;2022-07-04T17:32:57;25.6;51
70682;SHT31;58261;48.228;11.686;2022-07-04T17:36:17;25.6;51
70682;SHT31;58261;48.228;11.686;2022-07-04T17:39:37;25.6;51
70682;SHT31;58261;48.228;11.686;2022-07-04T17:42:57;25.5;51
70682;SHT31;58261;48.228;11.686;2022-07-04T17:46:17;25.5;51
70682;SHT31;58261;48.228;11.686;2022-07-04T17:49:37;25.5;51
70682;SHT31;58261;48.228;11.686;2022-07-04T17:52:57;25.4;52
70682;SHT31;58261;48.228;11.686;2022-07-04T17:56:17;25.4;52
70682;SHT31;58261;48.228;11.686;2022-07-04T17:59:37;25.4;52
70682;SHT31;58261;48.228;11.686;2022-07-04T18:02:57;25.4;52
70682;SHT31;58261;48.228;11.686;2022-07-04T18:06:17;25.4;52
70682;SHT31;58261;48.228;11.686;2022-07-04T18:09:37;25.4;52
70682;SHT31;58261;48.228;11.686;2022-07-04T18:12:57;25.4;52
70682;SHT31;58261;48.228;11.686;2022-07-04T18:16:17;25.4;53
70682;SHT31;58261;48.228;11.686;2022-07-04T18:19:37;25.4;53
70682;SHT31;58261;48.228;11.686;2022-07-04T18:22:57;25.4;53
70682;SHT31;58261;48.228;11.686;2022-07-04T18:26:17;25.3;53
70682;SHT31;58261;48.228;11.686;2022-07-04T18:29:37;25.3;53
70682;SHT31;58261;48.228;11.686;2022-07-04T18:32:57;25.3;53
70682;SHT31;58261;48.228;11.686;2022-07-04T18:36:17;25.2;53
70682;SHT31;58261;48.228;11.686;2022-07-04T18:39:37;25.2;53
70682;SHT31;58261;48.228;11.686;2022-07-04T18:42:57;25.2;53
70682;SHT31;58261;48.228;11.686;2022-07-04T18:46:17;25.2;53
70682;SHT31;58261;48.228;11.686;2022-07-04T18:49:37;25.1;54
70682;SHT31;58261;48.228;11.686;2022-07-04T18:52:57;25.1;54
70682;SHT31;58261;48.228;11.686;2022-07-04T18:56:17;25.1;54
70682;SHT31;58261;48.228;11.686;2022-07-04T18:59:37;25.1;54
70682;SHT31;58261;48.228;11.686;2022-07-04T19:02:57;25.1;54
70682;SHT31;58261;48.228;11.686;2022-07-04T19:06:17;25.1;54
70682;SHT31;58261;48.228;11.686;2022-07-04T19:09:37;25.1;54
70682;SHT31;58261;48.228;11.686;2022-07-04T19:12:57;25.1;54
70682;SHT31;58261;48.228;11.686;2022-07-04T19:16:17;25.1;54
70682;SHT31;58261;48.228;11.686;2022-07-04T19:19:37;24.5;55
70682;SHT31;58261;48.228;11.686;2022-07-04T19:22:57;24.5;55
70682;SHT31;58261;48.228;11.686;2022-07-04T19:26:17;24.5;55
70682;SHT31;58261;48.228;11.686;2022-07-04T19:29:37;24.5;55
70682;SHT31;58261;48.228;11.686;2022-07-04T19:32:57;23.7;58
70682;SHT31;58261;48.228;11.686;2022-07-04T19:36:17;23.7;58
70682;SHT31;58261;48.228;11.686;2022-07-04T19:39:37;23.7;58
70682;SHT31;58261;48.228;11.686;2022-07-04T19:42:57;22.8;71
70682;SHT31;58261;48.228;11.686;2022-07-04T19:46:17;22.8;71
70682;SHT31;58261;48.228;11.686;2022-07-04T19:49:37;22.8;71
70682;SHT31;58261;48.228;11.686;2022-07-04T19:52:57;22.5;73
70682;SHT31;58261;48.228;11.686;2022-07-04T19:56:17;22.5;73
70682;SHT31;58261;48.228;11.686;2022-07-04T19:59:37;22.5;73
70682;SHT31;58261;48.228;11.686;2022-07-04T20:02:57;22.5;73
70682;SHT31;58261;48.228;11.686;2022-07-04T20:06:17;22.0;72
70682;SHT31;58261;48.228;11.686;2022-07-04T20:09:37;22.0;72
70682;SHT31;58261;48.228;11.686;2022-07-04T20:12:57;22.0;72
70682;SHT31;58261;48.228;11.686;2022-07-04T20:16:17;21.7;73
70682;SHT31;58261;48.228;11.686;2022-07-04T20:19:37;21.7;73
70682;SHT31;58261;48.228;11.686;2022-07-04T20:22:57;21.7;73
70682;SHT31;58261;48.228;11.686;2022-07-04T20:26:17;21.5;74
70682;SHT31;58261;48.228;11.686;2022-07-04T20:29:37;21.5;74
70682;SHT31;58261;48.228;11.686;2022-07-04T20:32:57;21.5;74
70682;SHT31;58261;48.228;11.686;2022-07-04T20:36:17;21.5;74
70682;SHT31;58261;48.228;11.686;2022-07-04T20:39:37;21.5;74
70682;SHT31;58261;48.228;11.686;2022-07-04T20:42:57;21.5;74
70682;SHT31;58261;48.228;11.686;2022-07-04T20:46:17;21.5;74
70682;SHT31;58261;48.228;11.686;2022-07-04T20:49:37;21.5;74
70682;SHT31;58261;48.228;11.686;2022-07-04T20:52:57;21.5;74
70682;SHT31;58261;48.228;11.686;2022-07-04T20:56:17;21.5;74
70682;SHT31;58261;48.228;11.686;2022-07-04T20:59:37;21.3;74
70682;SHT31;58261;48.228;11.686;2022-07-04T21:02:57;21.3;74
70682;SHT31;58261;48.228;11.686;2022-07-04T21:06:17;21.3;74
70682;SHT31;58261;48.228;11.686;2022-07-04T21:09:37;21.3;75
70682;SHT31;58261;48.228;11.686;2022-07-04T21:12:57;21.3;75
70682;SHT31;58261;48.228;11.686;2022-07-04T21:16:17;21.3;75
70682;SHT31;58261;48.228;11.686;2022-07-04T21:19:37;21.2;75
70682;SHT31;58261;48.228;11.686;2022-07-04T21:22:57;21.2;75
70682;SHT31;58261;48.228;11.686;2022-07-04T21:26:17;21.2;75
70682;SHT31;58261;48.228;11.686;2022-07-04T21:29:37;21.2;75
70682;SHT31;58261;48.228;11.686;2022-07-04T21:32:57;21.2;75
70682;SHT31;58261;48.228;11.686;2022-07-04T21:36:17;21.2;75
70682;SHT31;58261;48.228;11.686;2022-07-04T21:39:37;21.2;75
70682;SHT31;58261;48.228;11.686;2022-07-04T21:42:57;21.0;77
70682;SHT31;58261;48.228;11.686;2022-07-04T21:46:17;21.0;77
70682;SHT31;58261;48.228;11.686;2022-07-04T21:49:37;21.0;77
70682;SHT31;58261;48.228;11.686;2022-07-04T21:53:00;21.2;76
70682;SHT31;58261;48.228;11.686;2022-07-04T21:56:17;21.2;76
70682;SHT31;58261;48.228;11.686;2022-07-04T21:59:35;21.2;76
70682;SHT31;58261;48.228;11.686;2022-07-04T22:02:55;21.1;76
70682;SHT31;58261;48.228;11.686;2022-07-04T22:06:15;21.1;76
70682;SHT31;58261;48.228;11.686;2022-07-04T22:09:35;21.1;76
70682;SHT31;58261;48.228;11.686;2022-07-04T22:12:55;21.1;76
70682;SHT31;58261;48.228;11.686;2022-07-04T22:16:15;21.1;76
70682;SHT31;58261;48.228;11.686;2022-07-04T22:19:35;21.1;76
70682;SHT31;58261;48.228;11.686;2022-07-04T22:22:55;21.1;76
70682;SHT31;58261;48.228;11.686;2022-07-04T22:26:15;21.1;77
70682;SHT31;58261;48.228;11.686;2022-07-04T22:29:35;21.1;77
70682;SHT31;58261;48.228;11.686;2022-07-04T22:32:55;21.1;77
70682;SHT31;58261;48.228;11.686;2022-07-04T22:36:15;21.1;77